This is the latest recevied weather packets stored in our database for station/object WMKN. If no packets are shown the sender has not sent any weather packets the latest 10 day(s).
| Time | Temp. | Humidity | Pressure | Rain* | Wind** | Luminosity | Snow |
|---|---|---|---|---|---|---|---|
| 1777356618 | 33.89° C | 66% | 1008 hPa | - | - | - | - |
| 1777353031 | 33.89° C | 66% | 1008 hPa | - | - | - | - |
| 1777349418 | 32.78° C | 66% | 1009 hPa | - | - | - | - |
| 1777345818 | 32.78° C | 62% | 1009 hPa | - | - | - | - |
| 1777342218 | 30.56° C | 74% | 1009 hPa | - | - | - | - |
| 1777338630 | 28.89° C | 79% | 1009 hPa | - | - | - | - |
| 1777335018 | 26.67° C | 88% | 1008 hPa | - | - | - | - |
| 1777331423 | 26.67° C | 88% | 1008 hPa | - | - | - | - |
| 1777327818 | 26.67° C | 88% | 1007 hPa | - | - | - | - |
| 1777324217 | 26.67° C | 88% | 1007 hPa | - | - | - | - |
| 1777320631 | 26.67° C | 88% | 1007 hPa | - | - | - | - |
| 1777317023 | 26.67° C | 88% | 1007 hPa | - | - | - | - |
| 1777313418 | 27.78° C | 88% | 1008 hPa | - | - | - | - |
| 1777309818 | 27.78° C | 88% | 1009 hPa | - | - | - | - |
| 1777306229 | 27.78° C | 88% | 1010 hPa | - | - | - | - |
| 1777302621 | 28.89° C | 83% | 1010 hPa | - | - | - | - |
| 1777299017 | 30° C | 79% | 1009 hPa | - | - | - | - |
| 1777295417 | 30° C | 79% | 1009 hPa | - | - | - | - |
| 1777291818 | 30° C | 79% | 1008 hPa | - | - | - | - |
| 1777288228 | 30.56° C | 74% | 1007 hPa | - | - | - | - |
| 1777284616 | 31.67° C | 74% | 1006 hPa | - | - | - | - |
| 1777281016 | 32.78° C | 70% | 1006 hPa | - | - | - | - |
| 1777277418 | 32.78° C | 70% | 1007 hPa | - | - | - | - |
| 1777273827 | 32.78° C | 66% | 1007 hPa | - | - | - | - |
| 1777270216 | 30.56° C | 70% | 1008 hPa | - | - | - | - |
* Rain since midnight (hover to see other rain measurements)
** Current wind speed in m/s (hover to see current wind gust speed)